Time;durP1;ratioP1;P1;durP2;ratioP2;P2;SDS_P1;SDS_P2;PMS_P1;PMS_P2;Temp;Humidity;BMP_temperature;BMP_pressure;BME280_temperature;BME280_humidity;BME280_pressure;Samples;Min_cycle;Max_cycle;Signal;HPM_P1;HPM_P2
2022/02/18 00:00:34;;;;;;;3.70;1.70;;;6.80;82.40;;;;;;5044921;28;20636;-62
2022/02/18 00:03:03;;;;;;;5.07;1.90;;;6.80;83.00;;;;;;5046020;28;20226;-63
2022/02/18 00:05:30;;;;;;;7.30;2.35;;;6.90;83.90;;;;;;5038815;28;20236;-61
2022/02/18 00:07:57;;;;;;;9.10;2.63;;;6.90;84.80;;;;;;5033455;28;20202;-62
2022/02/18 00:10:24;;;;;;;4.35;1.55;;;6.90;85.30;;;;;;5033174;28;20202;-61
2022/02/18 00:12:51;;;;;;;6.22;2.28;;;6.90;86.20;;;;;;5032755;28;20218;-60
2022/02/18 00:15:18;;;;;;;3.38;1.40;;;6.90;86.70;;;;;;5032712;28;20575;-62
2022/02/18 00:17:46;;;;;;;7.22;2.35;;;7.00;87.40;;;;;;5033126;28;20206;-62
2022/02/18 00:20:14;;;;;;;7.97;1.92;;;7.00;87.60;;;;;;5034520;28;20679;-62
2022/02/18 00:22:41;;;;;;;5.07;1.65;;;7.00;88.50;;;;;;5038531;28;20718;-62
2022/02/18 00:25:10;;;;;;;11.65;2.05;;;7.00;88.60;;;;;;5038109;28;20206;-61
2022/02/18 00:27:38;;;;;;;9.35;2.50;;;7.00;88.80;;;;;;5039886;28;20199;-61
2022/02/18 00:30:07;;;;;;;5.35;2.05;;;7.00;89.00;;;;;;5038766;28;20244;-63
2022/02/18 00:32:34;;;;;;;4.90;1.80;;;7.00;89.30;;;;;;5037836;28;20230;-61
2022/02/18 00:35:03;;;;;;;5.45;2.50;;;7.00;89.50;;;;;;5037771;28;20222;-61
2022/02/18 00:37:30;;;;;;;9.70;2.65;;;7.00;89.80;;;;;;5038103;28;20701;-62
2022/02/18 00:39:57;;;;;;;6.53;1.92;;;7.00;90.00;;;;;;5038202;28;20202;-63
2022/02/18 00:42:25;;;;;;;6.15;1.80;;;7.00;90.50;;;;;;5036888;28;20226;-63
2022/02/18 00:44:52;;;;;;;6.03;1.92;;;6.90;91.50;;;;;;5036975;28;20201;-62
2022/02/18 00:47:19;;;;;;;4.22;2.00;;;6.80;92.40;;;;;;5036867;28;20210;-62
2022/02/18 00:49:47;;;;;;;13.40;3.22;;;6.60;93.60;;;;;;5036595;28;20209;-62
2022/02/18 00:52:17;;;;;;;4.93;1.85;;;6.30;95.00;;;;;;5036565;28;20234;-62
2022/02/18 00:54:44;;;;;;;3.75;2.13;;;6.20;96.60;;;;;;5036817;28;20268;-61
2022/02/18 00:57:11;;;;;;;3.58;2.50;;;6.00;97.50;;;;;;5036973;28;20210;-61
2022/02/18 00:59:38;;;;;;;5.03;1.65;;;6.00;98.50;;;;;;5036668;28;20214;-61
2022/02/18 01:02:06;;;;;;;7.82;2.17;;;5.90;99.00;;;;;;5036512;28;20229;-62
2022/02/18 01:04:33;;;;;;;5.88;2.17;;;5.90;99.60;;;;;;5036531;28;20206;-62
2022/02/18 01:07:01;;;;;;;6.50;1.88;;;5.90;99.90;;;;;;5036695;28;20206;-61
2022/02/18 01:09:29;;;;;;;4.97;1.75;;;5.80;99.90;;;;;;5036723;28;20213;-61
2022/02/18 01:11:56;;;;;;;5.30;2.05;;;5.70;99.90;;;;;;5036319;28;20222;-62
2022/02/18 01:14:24;;;;;;;3.78;2.17;;;5.70;99.90;;;;;;5036287;28;20675;-62
2022/02/18 01:16:51;;;;;;;3.78;2.13;;;5.60;99.90;;;;;;5036663;28;20573;-62
2022/02/18 01:19:18;;;;;;;5.35;2.72;;;5.50;99.90;;;;;;5036162;28;20205;-62
2022/02/18 01:21:46;;;;;;;5.88;2.38;;;5.40;99.90;;;;;;5036040;28;20226;-62
2022/02/18 01:24:13;;;;;;;6.72;2.30;;;5.30;99.90;;;;;;5036084;28;20198;-62
2022/02/18 01:26:41;;;;;;;4.22;2.58;;;5.30;99.90;;;;;;5036261;28;20260;-62
2022/02/18 01:29:10;;;;;;;6.85;3.20;;;5.20;99.90;;;;;;5035882;28;20198;-62
2022/02/18 01:31:38;;;;;;;4.90;3.70;;;5.20;99.90;;;;;;5035609;28;20230;-62
2022/02/18 01:34:05;;;;;;;7.93;2.58;;;5.20;99.90;;;;;;5036210;28;20206;-61
2022/02/18 01:36:32;;;;;;;8.25;2.25;;;5.10;99.90;;;;;;5035313;28;20202;-62
2022/02/18 01:38:59;;;;;;;4.78;1.92;;;5.10;99.90;;;;;;5035985;28;20209;-62
2022/02/18 01:41:26;;;;;;;5.55;2.90;;;5.10;99.90;;;;;;5035762;28;20202;-62
2022/02/18 01:43:56;;;;;;;3.15;2.17;;;5.10;99.90;;;;;;5035951;28;20202;-63
2022/02/18 01:46:24;;;;;;;3.03;2.25;;;5.10;99.90;;;;;;5038263;28;20202;-63
2022/02/18 01:48:52;;;;;;;4.40;2.38;;;5.10;99.90;;;;;;5036298;28;20321;-63
2022/02/18 01:51:22;;;;;;;8.18;2.42;;;5.10;99.90;;;;;;5036316;28;20206;-63
2022/02/18 01:53:50;;;;;;;4.50;2.13;;;5.10;99.90;;;;;;5035850;28;20203;-63
2022/02/18 01:56:18;;;;;;;9.38;2.40;;;5.10;99.90;;;;;;5035882;28;20210;-63
2022/02/18 01:58:45;;;;;;;7.15;2.28;;;5.10;99.90;;;;;;5035495;28;20671;-62
2022/02/18 02:01:14;;;;;;;6.40;2.47;;;5.20;99.90;;;;;;5035955;28;20213;-63
2022/02/18 02:03:42;;;;;;;4.25;2.08;;;5.20;99.90;;;;;;5035749;28;20202;-62
2022/02/18 02:06:10;;;;;;;7.90;2.80;;;5.30;99.90;;;;;;5035705;28;20198;-62
2022/02/18 02:08:38;;;;;;;6.10;2.90;;;5.30;99.90;;;;;;5035596;28;20202;-63
2022/02/18 02:11:05;;;;;;;5.55;3.22;;;5.30;99.90;;;;;;5035717;28;20567;-62
2022/02/18 02:13:33;;;;;;;4.57;3.85;;;5.30;99.90;;;;;;5035335;28;20226;-62
2022/02/18 02:16:01;;;;;;;7.07;3.05;;;5.30;99.90;;;;;;5035059;28;20229;-63
2022/02/18 02:18:30;;;;;;;7.75;3.00;;;5.30;99.90;;;;;;5035384;28;20209;-63
2022/02/18 02:20:57;;;;;;;8.20;2.72;;;5.30;99.90;;;;;;5035005;28;20207;-62
2022/02/18 02:23:26;;;;;;;11.88;3.70;;;5.30;99.90;;;;;;5035284;28;20218;-63
2022/02/18 02:25:53;;;;;;;9.80;2.58;;;5.40;99.90;;;;;;5035180;28;20209;-62
2022/02/18 02:28:21;;;;;;;10.98;4.03;;;5.30;99.90;;;;;;5035420;28;20202;-63
2022/02/18 02:30:48;;;;;;;5.72;3.75;;;5.30;99.90;;;;;;5035323;28;20202;-62
2022/02/18 02:33:15;;;;;;;10.63;3.60;;;5.30;99.90;;;;;;5034864;28;20230;-64
2022/02/18 02:35:42;;;;;;;6.28;3.65;;;5.30;99.90;;;;;;5034678;28;20713;-63
2022/02/18 02:38:09;;;;;;;8.18;4.32;;;5.30;99.90;;;;;;5035095;28;20217;-63
2022/02/18 02:40:38;;;;;;;14.50;4.35;;;5.20;99.90;;;;;;5034953;28;20206;-61
2022/02/18 02:43:05;;;;;;;6.00;3.95;;;5.30;99.90;;;;;;5035005;28;20233;-62
2022/02/18 02:45:32;;;;;;;13.68;4.53;;;5.30;99.90;;;;;;5035258;28;20202;-63
2022/02/18 02:47:59;;;;;;;9.82;4.10;;;5.20;99.90;;;;;;5033896;28;20571;-63
2022/02/18 02:50:26;;;;;;;12.13;5.15;;;5.20;99.90;;;;;;5034837;28;20587;-61
2022/02/18 02:52:53;;;;;;;5.45;3.70;;;5.20;99.90;;;;;;5034664;28;20737;-62
2022/02/18 02:55:20;;;;;;;4.93;3.95;;;5.20;99.90;;;;;;5034864;28;20580;-63
2022/02/18 02:57:49;;;;;;;8.75;3.90;;;5.20;99.90;;;;;;5034334;28;20198;-63
2022/02/18 03:00:17;;;;;;;7.35;4.35;;;5.20;99.90;;;;;;5034505;28;20574;-62
2022/02/18 03:02:45;;;;;;;8.50;3.78;;;5.30;99.90;;;;;;5038165;28;20229;-63
2022/02/18 03:05:13;;;;;;;9.02;4.38;;;5.30;99.90;;;;;;5046802;28;20203;-64
2022/02/18 03:07:40;;;;;;;11.15;4.13;;;5.30;99.90;;;;;;5048129;28;20674;-63
2022/02/18 03:10:09;;;;;;;9.30;4.40;;;5.30;99.90;;;;;;5045546;28;20213;-63
2022/02/18 03:12:36;;;;;;;10.13;3.85;;;5.30;99.90;;;;;;5044380;28;20706;-63
2022/02/18 03:15:06;;;;;;;9.35;4.38;;;5.30;99.90;;;;;;5034243;28;20225;-63
2022/02/18 03:17:34;;;;;;;9.57;4.15;;;5.30;99.90;;;;;;5034097;28;20202;-64
2022/02/18 03:20:01;;;;;;;7.20;3.53;;;5.30;99.90;;;;;;5034205;28;20213;-62
2022/02/18 03:22:28;;;;;;;11.30;4.18;;;5.30;99.90;;;;;;5034506;28;20407;-62
2022/02/18 03:24:55;;;;;;;9.05;3.85;;;5.30;99.90;;;;;;5033866;28;20206;-63
2022/02/18 03:27:22;;;;;;;10.55;3.67;;;5.30;99.90;;;;;;5033611;28;20208;-61
2022/02/18 03:29:50;;;;;;;14.80;4.32;;;5.30;99.90;;;;;;5033647;28;20202;-63
2022/02/18 03:32:18;;;;;;;12.68;2.92;;;5.30;99.90;;;;;;5033408;28;20736;-62
2022/02/18 03:34:45;;;;;;;15.15;3.50;;;5.30;99.90;;;;;;5033494;28;20222;-62
2022/02/18 03:37:13;;;;;;;10.40;3.40;;;5.30;99.90;;;;;;5033553;28;20203;-62
2022/02/18 03:39:40;;;;;;;7.68;3.25;;;5.30;99.90;;;;;;5042376;28;20202;-63
2022/02/18 03:42:07;;;;;;;12.77;4.35;;;5.20;99.90;;;;;;5046113;28;20231;-62
2022/02/18 03:44:35;;;;;;;11.93;4.00;;;5.20;99.90;;;;;;5037939;28;20205;-63
2022/02/18 03:47:03;;;;;;;12.38;3.63;;;5.30;99.90;;;;;;5033857;28;20202;-63
2022/02/18 03:49:32;;;;;;;10.98;3.78;;;5.30;99.90;;;;;;5033218;28;20198;-63
2022/02/18 03:51:59;;;;;;;13.45;3.60;;;5.30;99.90;;;;;;5033387;28;20233;-63
2022/02/18 03:54:26;;;;;;;10.40;3.60;;;5.30;99.90;;;;;;5033527;28;20206;-62
2022/02/18 03:56:54;;;;;;;11.90;4.55;;;5.20;99.90;;;;;;5036807;28;20218;-63
2022/02/18 03:59:21;;;;;;;7.03;3.20;;;5.20;99.90;;;;;;5039771;28;20202;-63
2022/02/18 04:01:48;;;;;;;12.23;3.92;;;5.10;99.90;;;;;;5037754;28;20272;-63
2022/02/18 04:04:16;;;;;;;9.88;4.32;;;5.10;99.90;;;;;;5038152;28;20213;-63
2022/02/18 04:09:22;;;;;;;9.98;3.83;;;5.00;99.90;;;;;;5097540;27;20594;-62
2022/02/18 04:11:49;;;;;;;9.40;4.57;;;5.00;99.90;;;;;;5097473;28;20242;-63
2022/02/18 04:14:16;;;;;;;9.18;3.92;;;5.00;99.90;;;;;;5098252;28;20201;-63
2022/02/18 04:16:43;;;;;;;8.80;3.63;;;5.00;99.90;;;;;;5098114;28;20200;-62
2022/02/18 04:19:10;;;;;;;10.82;4.40;;;5.10;99.90;;;;;;5097223;28;20208;-63
2022/02/18 04:21:37;;;;;;;10.38;3.90;;;5.10;99.90;;;;;;5098042;28;20227;-63
2022/02/18 04:24:05;;;;;;;12.85;4.30;;;5.20;99.90;;;;;;5098935;28;20196;-62
2022/02/18 04:26:33;;;;;;;11.43;4.25;;;5.20;99.90;;;;;;5098223;28;20668;-62
2022/02/18 04:29:00;;;;;;;9.20;4.18;;;5.30;99.90;;;;;;5094269;28;20220;-62
2022/02/18 04:31:27;;;;;;;9.05;4.45;;;5.40;99.90;;;;;;5094203;28;20589;-62
2022/02/18 04:33:54;;;;;;;8.93;4.40;;;5.40;99.90;;;;;;5094918;28;20205;-62
2022/02/18 04:36:21;;;;;;;18.52;4.60;;;5.40;99.90;;;;;;5093709;28;20207;-61
2022/02/18 04:38:49;;;;;;;12.15;6.05;;;5.50;99.90;;;;;;5092560;28;20205;-62
2022/02/18 04:41:16;;;;;;;22.00;5.05;;;5.50;99.90;;;;;;5091022;28;20196;-62
2022/02/18 04:43:44;;;;;;;11.65;4.50;;;5.50;99.90;;;;;;5091267;28;20249;-62
2022/02/18 04:46:11;;;;;;;11.38;4.90;;;5.50;99.90;;;;;;5090478;28;20212;-62
2022/02/18 04:48:38;;;;;;;13.55;5.22;;;5.50;99.90;;;;;;5090875;28;20212;-62
2022/02/18 04:51:05;;;;;;;12.68;5.70;;;5.50;99.90;;;;;;5090356;28;20196;-63
2022/02/18 04:53:33;;;;;;;10.38;5.07;;;5.60;99.90;;;;;;5091051;28;20590;-62
2022/02/18 04:56:00;;;;;;;16.75;5.47;;;5.60;99.90;;;;;;5091454;28;20212;-62
2022/02/18 04:58:27;;;;;;;11.02;5.25;;;5.60;99.90;;;;;;5092104;28;20572;-62
2022/02/18 05:00:55;;;;;;;8.98;4.85;;;5.60;99.90;;;;;;5090389;28;20567;-61
2022/02/18 05:03:22;;;;;;;10.65;5.60;;;5.70;99.90;;;;;;5090850;28;20224;-62
2022/02/18 05:05:49;;;;;;;12.38;5.20;;;5.70;99.90;;;;;;5090534;28;20200;-62
2022/02/18 05:08:16;;;;;;;13.13;4.72;;;5.70;99.90;;;;;;5096262;28;20220;-63
2022/02/18 05:10:44;;;;;;;14.43;4.80;;;5.70;99.90;;;;;;5099462;28;20228;-62
2022/02/18 05:13:11;;;;;;;11.05;5.38;;;5.80;99.90;;;;;;5098114;28;20228;-61
2022/02/18 05:15:38;;;;;;;8.75;4.53;;;5.80;99.90;;;;;;5098018;28;20208;-62
2022/02/18 05:18:07;;;;;;;18.98;4.88;;;5.80;99.90;;;;;;5091313;28;20689;-61
2022/02/18 05:20:34;;;;;;;21.98;5.72;;;5.80;99.90;;;;;;5077059;28;20201;-60
2022/02/18 05:23:01;;;;;;;15.18;4.57;;;5.90;99.90;;;;;;5076012;28;20229;-64
2022/02/18 05:25:28;;;;;;;8.93;4.15;;;5.90;99.90;;;;;;5075824;28;20207;-62
2022/02/18 05:27:55;;;;;;;16.88;4.78;;;5.90;99.90;;;;;;5075864;28;20213;-63
2022/02/18 05:30:23;;;;;;;9.50;4.57;;;5.90;99.90;;;;;;5075979;28;20209;-61
2022/02/18 05:32:50;;;;;;;10.90;4.50;;;5.90;99.90;;;;;;5075850;28;20231;-63
2022/02/18 05:35:19;;;;;;;13.65;5.30;;;5.90;99.90;;;;;;5075770;28;20201;-61
2022/02/18 05:37:46;;;;;;;13.35;4.40;;;5.90;99.90;;;;;;5075697;28;20208;-62
2022/02/18 05:40:14;;;;;;;11.35;5.35;;;5.90;99.90;;;;;;5075563;28;20208;-62
2022/02/18 05:42:41;;;;;;;8.98;4.40;;;5.90;99.90;;;;;;5075728;28;20282;-62
2022/02/18 05:45:09;;;;;;;14.13;5.13;;;6.00;99.90;;;;;;5075574;28;20201;-62
2022/02/18 05:47:37;;;;;;;14.48;5.03;;;6.00;99.90;;;;;;5075538;28;20196;-62
2022/02/18 05:50:08;;;;;;;14.50;5.05;;;6.00;99.90;;;;;;5076060;28;20205;-62
2022/02/18 05:52:36;;;;;;;12.02;5.07;;;6.00;99.90;;;;;;5075519;28;20592;-60
2022/02/18 05:55:04;;;;;;;7.95;4.90;;;6.00;99.90;;;;;;5075817;28;20223;-62
2022/02/18 05:57:32;;;;;;;12.65;5.40;;;6.00;99.90;;;;;;5075683;28;20232;-61
2022/02/18 05:59:59;;;;;;;14.68;5.57;;;6.00;99.90;;;;;;5075296;28;20204;-62
2022/02/18 06:02:26;;;;;;;19.23;5.80;;;6.00;99.90;;;;;;5075728;28;20232;-62
2022/02/18 06:04:53;;;;;;;13.38;6.15;;;6.00;99.90;;;;;;5075525;28;20240;-62
2022/02/18 06:07:20;;;;;;;13.65;6.70;;;6.00;99.90;;;;;;5076379;28;20216;-63
2022/02/18 06:09:48;;;;;;;15.43;7.20;;;6.00;99.90;;;;;;5076640;28;20224;-62
2022/02/18 06:12:16;;;;;;;20.45;7.78;;;6.10;99.90;;;;;;5076109;28;20224;-61
2022/02/18 06:14:43;;;;;;;12.63;7.18;;;6.10;99.90;;;;;;5076087;28;20239;-62
2022/02/18 06:17:10;;;;;;;16.38;8.50;;;6.10;99.90;;;;;;5075994;28;20291;-61
2022/02/18 06:19:38;;;;;;;15.90;7.93;;;6.10;99.90;;;;;;5076409;28;20201;-61
2022/02/18 06:22:05;;;;;;;16.08;9.23;;;6.10;99.90;;;;;;5076437;28;20217;-61
2022/02/18 06:24:32;;;;;;;18.75;8.80;;;6.10;99.90;;;;;;5076934;28;20204;-60
2022/02/18 06:27:00;;;;;;;16.20;9.95;;;6.10;99.90;;;;;;5076405;28;20201;-60
2022/02/18 06:29:27;;;;;;;16.50;10.15;;;6.10;99.90;;;;;;5077038;28;20217;-61
2022/02/18 06:31:54;;;;;;;19.40;10.18;;;6.20;99.90;;;;;;5083199;28;20228;-61
2022/02/18 06:34:22;;;;;;;22.00;11.52;;;6.20;99.90;;;;;;5091922;28;20205;-61
2022/02/18 06:36:51;;;;;;;18.08;10.68;;;6.20;99.90;;;;;;5083144;28;20227;-60
2022/02/18 06:39:19;;;;;;;17.75;12.05;;;6.30;99.90;;;;;;5077966;28;20582;-60
2022/02/18 06:41:47;;;;;;;23.67;13.40;;;6.30;99.90;;;;;;5077744;28;20277;-60
2022/02/18 06:44:16;;;;;;;23.42;12.85;;;6.30;99.90;;;;;;5076331;28;20201;-61
2022/02/18 06:46:43;;;;;;;18.00;11.95;;;6.30;99.90;;;;;;5075703;28;20205;-60
2022/02/18 06:49:10;;;;;;;22.30;13.70;;;6.40;99.90;;;;;;5076155;28;20221;-61
2022/02/18 06:51:38;;;;;;;17.98;12.40;;;6.40;99.90;;;;;;5075614;28;20307;-60
2022/02/18 06:54:06;;;;;;;21.48;13.38;;;6.40;99.90;;;;;;5075461;28;20201;-61
2022/02/18 06:56:33;;;;;;;17.35;13.20;;;6.40;99.90;;;;;;5076292;28;20284;-61
2022/02/18 06:59:00;;;;;;;20.25;12.45;;;6.50;99.90;;;;;;5075738;28;20201;-61
2022/02/18 07:01:28;;;;;;;27.20;12.65;;;6.50;99.90;;;;;;5074918;28;20232;-60
2022/02/18 07:03:55;;;;;;;28.08;14.32;;;6.60;99.90;;;;;;5074972;28;20224;-62
2022/02/18 07:06:22;;;;;;;22.15;12.20;;;6.50;99.90;;;;;;5075013;28;20665;-62
2022/02/18 07:08:50;;;;;;;21.10;13.15;;;6.60;99.90;;;;;;5074481;28;20716;-62
2022/02/18 07:11:17;;;;;;;18.55;12.65;;;6.60;99.90;;;;;;5074143;28;20673;-61
2022/02/18 07:13:44;;;;;;;23.08;13.57;;;6.60;99.90;;;;;;5074313;28;20232;-62
2022/02/18 07:16:11;;;;;;;22.58;13.70;;;6.60;99.90;;;;;;5074117;28;20545;-63
2022/02/18 07:18:41;;;;;;;23.90;13.05;;;6.60;99.90;;;;;;5074031;28;20193;-61
2022/02/18 07:21:08;;;;;;;16.98;11.73;;;6.60;99.90;;;;;;5074295;28;20224;-62
2022/02/18 07:23:36;;;;;;;18.67;11.23;;;6.60;99.90;;;;;;5074069;28;20221;-63
2022/02/18 07:26:03;;;;;;;23.88;11.25;;;6.60;99.90;;;;;;5073850;28;20201;-62
2022/02/18 07:28:30;;;;;;;22.02;13.77;;;6.60;99.90;;;;;;5073961;28;20248;-61
2022/02/18 07:30:58;;;;;;;22.58;12.60;;;6.70;99.90;;;;;;5073853;28;20201;-62
2022/02/18 07:33:25;;;;;;;21.02;12.95;;;6.60;99.90;;;;;;5073687;28;20221;-62
2022/02/18 07:35:54;;;;;;;22.13;13.68;;;6.70;99.90;;;;;;5074558;28;20209;-61
2022/02/18 07:38:21;;;;;;;21.40;13.20;;;6.70;99.90;;;;;;5074859;28;20564;-62
2022/02/18 07:40:48;;;;;;;19.50;11.95;;;6.70;99.90;;;;;;5076034;28;20201;-63
2022/02/18 07:43:15;;;;;;;23.02;12.07;;;6.80;99.90;;;;;;5085201;28;20247;-63
2022/02/18 07:45:42;;;;;;;22.88;11.43;;;6.80;99.90;;;;;;5084345;28;20205;-61
2022/02/18 07:48:09;;;;;;;15.07;10.95;;;6.90;99.90;;;;;;5083105;28;20205;-62
2022/02/18 07:50:36;;;;;;;20.58;10.82;;;6.90;99.90;;;;;;5080051;28;20201;-63
2022/02/18 07:53:04;;;;;;;17.38;11.52;;;6.90;99.90;;;;;;5078740;28;20224;-62
2022/02/18 07:55:32;;;;;;;20.30;11.80;;;7.00;99.90;;;;;;5076243;28;20208;-63
2022/02/18 07:57:59;;;;;;;19.52;11.52;;;7.10;99.90;;;;;;5074525;28;20201;-61
2022/02/18 08:00:26;;;;;;;21.73;11.40;;;7.10;99.90;;;;;;5073735;28;20201;-62
2022/02/18 08:02:53;;;;;;;16.92;10.15;;;7.20;99.90;;;;;;5073494;28;20221;-62
2022/02/18 08:05:20;;;;;;;15.85;9.40;;;7.20;99.90;;;;;;5073373;28;20228;-62
2022/02/18 08:07:47;;;;;;;15.25;8.57;;;7.20;99.90;;;;;;5073397;28;20568;-60
2022/02/18 08:10:16;;;;;;;18.15;9.35;;;7.30;99.90;;;;;;5073290;28;20717;-61
2022/02/18 08:12:43;;;;;;;18.80;8.52;;;7.30;99.90;;;;;;5073666;28;20224;-63
2022/02/18 08:15:10;;;;;;;13.77;9.30;;;7.30;99.90;;;;;;5074017;28;20209;-63
2022/02/18 08:17:38;;;;;;;19.30;9.10;;;7.40;99.90;;;;;;5073999;28;20201;-63
2022/02/18 08:20:07;;;;;;;15.95;8.20;;;7.40;99.90;;;;;;5076589;28;20197;-62
2022/02/18 08:22:34;;;;;;;16.23;8.75;;;7.40;99.90;;;;;;5084538;28;20228;-61
2022/02/18 08:25:02;;;;;;;14.32;7.40;;;7.50;99.90;;;;;;5082096;28;20197;-62
2022/02/18 08:27:31;;;;;;;14.18;7.85;;;7.50;99.90;;;;;;5083671;28;20200;-62
2022/02/18 08:29:58;;;;;;;11.73;7.75;;;7.50;99.90;;;;;;5084232;28;20224;-63
2022/02/18 08:32:25;;;;;;;11.75;6.85;;;7.50;99.90;;;;;;5083588;28;20228;-64
2022/02/18 08:34:52;;;;;;;12.32;6.10;;;7.50;99.90;;;;;;5085186;28;20200;-63
2022/02/18 08:37:19;;;;;;;11.50;5.93;;;7.50;99.90;;;;;;5086120;28;20210;-63
2022/02/18 08:39:46;;;;;;;10.77;5.75;;;7.50;99.90;;;;;;5084984;28;20275;-63
2022/02/18 08:42:13;;;;;;;14.52;5.13;;;7.60;99.90;;;;;;5080554;28;20231;-64
2022/02/18 08:44:42;;;;;;;10.48;5.03;;;7.60;99.90;;;;;;5076316;28;20208;-63
2022/02/18 08:47:09;;;;;;;10.60;4.80;;;7.50;99.90;;;;;;5075901;28;20213;-63
2022/02/18 08:49:40;;;;;;;8.68;4.60;;;7.50;99.90;;;;;;5075733;28;20239;-63
2022/02/18 08:52:07;;;;;;;9.10;4.18;;;7.60;99.90;;;;;;5078432;28;20225;-64
2022/02/18 08:54:34;;;;;;;8.15;3.90;;;7.60;99.90;;;;;;5077884;28;20201;-64
2022/02/18 08:57:02;;;;;;;8.10;4.70;;;7.70;99.90;;;;;;5079603;28;20287;-63
2022/02/18 08:59:29;;;;;;;7.93;4.00;;;7.70;99.90;;;;;;5079685;28;20197;-64
2022/02/18 09:01:57;;;;;;;7.00;4.80;;;7.70;99.90;;;;;;5078650;28;20221;-64
2022/02/18 09:04:24;;;;;;;9.82;4.40;;;7.80;99.90;;;;;;5078347;28;20205;-64
2022/02/18 09:06:51;;;;;;;7.88;4.30;;;7.80;99.90;;;;;;5078864;28;20201;-63
2022/02/18 09:09:19;;;;;;;9.05;4.20;;;7.80;99.90;;;;;;5078215;28;20235;-64
2022/02/18 09:11:46;;;;;;;8.45;4.35;;;7.80;99.90;;;;;;5078307;28;20597;-64
2022/02/18 09:14:16;;;;;;;10.23;5.13;;;7.90;99.90;;;;;;5078501;28;20201;-64
2022/02/18 09:16:43;;;;;;;7.97;3.47;;;7.90;99.90;;;;;;5079427;28;20236;-64
2022/02/18 09:19:11;;;;;;;8.07;3.90;;;7.90;99.90;;;;;;5079219;28;20201;-62
2022/02/18 09:21:38;;;;;;;10.25;4.45;;;7.90;99.90;;;;;;5078446;28;20232;-62
2022/02/18 09:24:06;;;;;;;6.65;3.30;;;7.90;99.90;;;;;;5076836;28;20201;-62
2022/02/18 09:26:34;;;;;;;12.05;3.88;;;7.90;99.90;;;;;;5077488;28;20216;-64
2022/02/18 09:29:01;;;;;;;13.38;4.32;;;7.90;99.90;;;;;;5076648;28;20221;-63
2022/02/18 09:31:28;;;;;;;13.82;4.10;;;8.00;99.90;;;;;;5076368;28;20676;-63
2022/02/18 09:33:55;;;;;;;5.85;3.42;;;8.00;99.90;;;;;;5076682;28;20201;-63
2022/02/18 09:36:23;;;;;;;7.28;3.85;;;8.10;99.90;;;;;;5076726;28;20205;-63
2022/02/18 09:38:51;;;;;;;10.05;3.22;;;8.10;99.90;;;;;;5076870;28;20209;-63
2022/02/18 09:41:18;;;;;;;13.00;3.83;;;8.10;99.90;;;;;;5077570;28;20201;-64
2022/02/18 09:43:47;;;;;;;10.52;3.80;;;8.10;99.90;;;;;;5078970;28;20573;-62
2022/02/18 09:46:15;;;;;;;10.40;3.38;;;8.10;99.90;;;;;;5078282;28;20703;-64
2022/02/18 09:48:42;;;;;;;9.82;3.58;;;8.10;99.90;;;;;;5078344;28;20205;-64
2022/02/18 09:51:11;;;;;;;11.02;4.00;;;8.10;99.90;;;;;;5076043;28;20224;-63
2022/02/18 09:53:39;;;;;;;9.70;4.13;;;8.10;99.90;;;;;;5076634;28;20200;-62
2022/02/18 09:56:09;;;;;;;9.18;3.42;;;8.20;99.90;;;;;;5076321;28;20226;-62
2022/02/18 09:58:36;;;;;;;5.75;3.45;;;8.20;99.90;;;;;;5076343;28;20216;-63
2022/02/18 10:01:03;;;;;;;10.30;3.70;;;8.30;99.90;;;;;;5077167;28;20201;-63
2022/02/18 10:03:30;;;;;;;5.82;2.78;;;8.30;99.90;;;;;;5078257;28;20225;-64
2022/02/18 10:05:57;;;;;;;13.13;4.82;;;8.30;99.90;;;;;;5078682;28;20227;-64
2022/02/18 10:08:25;;;;;;;7.90;3.03;;;8.30;99.90;;;;;;5080242;28;20212;-64
2022/02/18 10:11:05;;;;;;;13.57;3.47;;;8.30;99.90;;;;;;5078595;28;20259;-62
2022/02/18 10:13:35;;;;;;;8.25;3.70;;;8.30;99.90;;;;;;5078205;28;20220;-62
2022/02/18 10:16:04;;;;;;;6.47;2.75;;;8.30;99.90;;;;;;5078938;28;20270;-63
2022/02/18 10:18:50;;;;;;;8.80;3.60;;;8.20;99.90;;;;;;5077702;28;20201;-63
2022/02/18 10:23:48;;;;;;;12.75;4.43;;;8.00;99.90;;;;;;5055833;22;20234;-61
2022/02/18 10:26:16;;;;;;;9.90;4.00;;;8.00;99.90;;;;;;5034979;28;20297;-60
2022/02/18 10:28:57;;;;;;;14.98;4.13;;;7.90;99.90;;;;;;5035258;28;20548;-60
2022/02/18 10:31:24;;;;;;;8.48;3.03;;;7.80;99.90;;;;;;5034492;28;20268;-60
2022/02/18 10:34:02;;;;;;;6.45;2.70;;;7.80;99.90;;;;;;5034689;28;20213;-60
2022/02/18 10:36:36;;;;;;;11.63;3.10;;;7.70;99.90;;;;;;5034717;28;20260;-59
2022/02/18 10:39:26;;;;;;;16.77;3.53;;;7.70;99.90;;;;;;5034652;28;20531;-60
2022/02/18 10:41:57;;;;;;;7.75;2.55;;;7.70;99.90;;;;;;5034178;28;20226;-60
2022/02/18 10:44:26;;;;;;;8.15;2.97;;;7.60;99.90;;;;;;5034259;28;20218;-59
2022/02/18 10:46:56;;;;;;;11.80;4.15;;;7.60;99.90;;;;;;5034305;28;20233;-60
2022/02/18 10:49:24;;;;;;;14.98;3.40;;;7.60;99.90;;;;;;5033968;28;20249;-60
2022/02/18 10:51:51;;;;;;;10.93;3.45;;;7.60;99.90;;;;;;5033636;28;20236;-60
2022/02/18 10:54:28;;;;;;;9.70;3.35;;;7.70;99.90;;;;;;5033677;28;20197;-62
2022/02/18 10:57:19;;;;;;;13.55;4.43;;;7.70;99.90;;;;;;5034132;28;20199;-61
2022/02/18 10:59:47;;;;;;;10.88;3.30;;;7.70;99.90;;;;;;5033654;28;20563;-62
2022/02/18 11:02:14;;;;;;;7.28;2.83;;;7.80;99.90;;;;;;5033792;28;20226;-62
2022/02/18 11:04:41;;;;;;;9.98;3.22;;;7.80;99.90;;;;;;5033928;28;20206;-61
2022/02/18 11:07:10;;;;;;;11.32;3.00;;;7.80;99.90;;;;;;5033784;28;20323;-61
2022/02/18 11:09:37;;;;;;;11.40;3.05;;;7.90;99.90;;;;;;5033701;28;20219;-63
2022/02/18 11:12:08;;;;;;;12.25;3.30;;;7.80;99.90;;;;;;5034373;28;20376;-61
2022/02/18 11:14:38;;;;;;;8.57;3.22;;;7.90;99.90;;;;;;5034010;28;20206;-61
2022/02/18 11:17:05;;;;;;;8.65;3.85;;;8.00;99.90;;;;;;5033336;28;20202;-61
2022/02/18 11:19:35;;;;;;;8.00;2.65;;;8.10;99.90;;;;;;5033600;28;20202;-61
2022/02/18 11:22:03;;;;;;;10.45;3.90;;;8.20;99.90;;;;;;5033318;28;20230;-61
2022/02/18 11:24:31;;;;;;;8.77;3.35;;;8.30;99.90;;;;;;5033887;28;20226;-61
2022/02/18 11:27:01;;;;;;;7.55;3.13;;;8.40;99.90;;;;;;5033602;28;20209;-63
2022/02/18 11:29:28;;;;;;;7.50;2.92;;;8.50;99.90;;;;;;5033587;28;20211;-61
2022/02/18 11:32:01;;;;;;;6.15;3.00;;;8.50;99.90;;;;;;5033427;28;20226;-61
2022/02/18 11:34:50;;;;;;;7.40;3.20;;;8.50;99.90;;;;;;5033402;28;20230;-61
2022/02/18 11:37:44;;;;;;;9.15;2.92;;;8.50;99.90;;;;;;5034576;28;20600;-62
2022/02/18 11:40:53;;;;;;;11.35;3.25;;;8.60;99.90;;;;;;5033491;28;20190;-61
2022/02/18 11:43:25;;;;;;;12.63;2.78;;;8.70;99.90;;;;;;5033352;28;20222;-61
2022/02/18 11:46:00;;;;;;;6.80;2.40;;;8.70;99.90;;;;;;5033526;28;20237;-60
2022/02/18 11:48:44;;;;;;;3.17;2.13;;;8.80;99.90;;;;;;5032977;28;20548;-59
2022/02/18 11:51:13;;;;;;;11.32;3.10;;;8.90;99.90;;;;;;5033872;28;20556;-62
2022/02/18 11:53:45;;;;;;;7.05;3.00;;;8.90;99.90;;;;;;5032860;28;20226;-60
2022/02/18 11:56:14;;;;;;;4.22;2.45;;;9.10;99.90;;;;;;5032940;28;20201;-60
2022/02/18 11:59:00;;;;;;;11.02;2.88;;;9.10;99.90;;;;;;5032957;28;20202;-59
2022/02/18 12:02:00;;;;;;;5.80;1.90;;;9.20;99.90;;;;;;5032767;28;20295;-60
2022/02/18 12:04:29;;;;;;;5.80;2.15;;;9.20;99.90;;;;;;5033434;28;20206;-62
2022/02/18 12:07:28;;;;;;;5.82;2.05;;;9.30;99.90;;;;;;5033038;28;20297;-63
2022/02/18 12:10:04;;;;;;;9.68;2.30;;;9.30;99.90;;;;;;5033707;28;20222;-63
2022/02/18 12:12:33;;;;;;;10.40;2.10;;;9.40;99.90;;;;;;5033800;28;20213;-63
2022/02/18 12:15:10;;;;;;;4.53;2.30;;;9.40;99.90;;;;;;5033015;28;20205;-63
2022/02/18 12:17:39;;;;;;;6.73;2.50;;;9.50;99.90;;;;;;5033523;28;20432;-63
2022/02/18 12:20:16;;;;;;;4.82;1.70;;;9.60;99.90;;;;;;5033146;28;20445;-62
2022/02/18 12:22:44;;;;;;;8.20;2.27;;;9.60;99.90;;;;;;5032807;28;20230;-62
2022/02/18 12:25:26;;;;;;;4.90;1.93;;;9.60;99.90;;;;;;5032796;28;20968;-62
2022/02/18 12:27:55;;;;;;;3.33;2.15;;;9.70;99.90;;;;;;5032570;28;20433;-62
2022/02/18 12:30:40;;;;;;;6.32;2.75;;;9.70;99.90;;;;;;5035212;28;20690;-62
2022/02/18 12:33:09;;;;;;;4.07;2.30;;;9.70;99.90;;;;;;5037127;28;20284;-65
2022/02/18 12:35:38;;;;;;;3.60;1.60;;;9.70;99.90;;;;;;5036800;28;20199;-63
2022/02/18 12:38:07;;;;;;;4.20;1.70;;;9.70;99.90;;;;;;5036379;28;20202;-62
2022/02/18 12:40:36;;;;;;;7.37;2.50;;;9.80;99.90;;;;;;5036488;28;20808;-60
2022/02/18 12:43:06;;;;;;;8.33;2.17;;;9.80;99.90;;;;;;5036696;28;20468;-61
2022/02/18 12:45:44;;;;;;;3.13;1.40;;;9.80;99.90;;;;;;5036918;28;20429;-62
2022/02/18 12:48:11;;;;;;;4.97;1.90;;;9.90;99.90;;;;;;5036251;28;20433;-61
2022/02/18 12:50:42;;;;;;;6.20;2.00;;;10.00;99.90;;;;;;5036797;28;20579;-63
2022/02/18 12:53:10;;;;;;;4.20;2.00;;;10.00;99.90;;;;;;5036283;28;20972;-62
2022/02/18 12:55:38;;;;;;;2.37;1.53;;;10.10;99.90;;;;;;5036007;28;20444;-63
2022/02/18 12:58:11;;;;;;;3.72;1.83;;;10.20;99.90;;;;;;5036398;28;20457;-62
2022/02/18 13:00:39;;;;;;;4.63;2.20;;;10.20;99.90;;;;;;5036462;28;20218;-62
2022/02/18 13:03:08;;;;;;;6.17;2.10;;;10.30;99.90;;;;;;5036032;28;20524;-62